Time;durP1;ratioP1;P1;durP2;ratioP2;P2;SDS_P1;SDS_P2;PMS_P1;PMS_P2;Temp;Humidity;BMP_temperature;BMP_pressure;BME280_temperature;BME280_humidity;BME280_pressure;Samples;Min_cycle;Max_cycle;Signal;HPM_P1;HPM_P2
2021/12/27 00:00:29;;;;;;;57.15;24.42;;;;;;;-8.16;83.44;100452.75;5064876;28;20052;-60
2021/12/27 00:02:59;;;;;;;53.50;24.33;;;;;;;-8.01;81.93;100443.59;5068756;28;20044;-60
2021/12/27 00:05:27;;;;;;;58.55;25.27;;;;;;;-8.03;82.46;100440.16;5061975;28;20078;-61
2021/12/27 00:07:54;;;;;;;51.10;22.50;;;;;;;-8.00;82.53;100433.41;5068593;28;20139;-61
2021/12/27 00:10:24;;;;;;;62.80;25.83;;;;;;;-7.99;82.05;100427.44;5064117;28;20057;-60
2021/12/27 00:12:51;;;;;;;57.47;24.05;;;;;;;-8.05;82.88;100436.72;5066041;28;20037;-60
2021/12/27 00:15:18;;;;;;;63.08;26.10;;;;;;;-7.94;81.57;100436.00;5062632;28;20143;-60
2021/12/27 00:17:47;;;;;;;61.60;25.10;;;;;;;-7.91;81.43;100441.19;5068863;28;20116;-60
2021/12/27 00:20:16;;;;;;;59.55;25.92;;;;;;;-7.95;82.05;100443.66;5068179;28;20049;-59
2021/12/27 00:22:45;;;;;;;61.05;25.85;;;;;;;-7.94;81.48;100440.28;5062709;28;20044;-63
2021/12/27 00:25:13;;;;;;;68.65;25.73;;;;;;;-7.93;81.41;100431.75;5068037;28;20365;-61
2021/12/27 00:27:40;;;;;;;62.10;25.40;;;;;;;-7.92;81.13;100431.81;5062135;28;20123;-58
2021/12/27 00:30:10;;;;;;;54.17;23.50;;;;;;;-7.94;81.03;100420.69;5066339;28;20044;-61
2021/12/27 00:32:37;;;;;;;56.75;24.98;;;;;;;-7.95;81.22;100413.88;5068378;28;20055;-61
2021/12/27 00:35:05;;;;;;;54.63;24.00;;;;;;;-7.93;81.64;100408.75;5065266;28;20107;-59
2021/12/27 00:37:32;;;;;;;72.25;26.83;;;;;;;-7.95;82.20;100403.66;5050223;28;20049;-58
2021/12/27 00:39:59;;;;;;;69.03;27.52;;;;;;;-7.86;81.21;100400.34;5065339;28;20052;-61
2021/12/27 00:42:27;;;;;;;61.03;24.88;;;;;;;-7.90;81.35;100403.72;5064931;28;20156;-58
2021/12/27 00:44:54;;;;;;;58.72;24.92;;;;;;;-7.90;81.58;100408.81;5064697;28;20048;-54
2021/12/27 00:47:21;;;;;;;64.00;26.30;;;;;;;-7.81;81.32;100402.97;5068575;28;20076;-60
2021/12/27 00:49:48;;;;;;;64.70;25.90;;;;;;;-7.85;81.77;100396.09;5061906;28;20040;-60
2021/12/27 00:52:16;;;;;;;63.50;25.75;;;;;;;-7.88;81.31;100402.00;5065188;28;20067;-59
2021/12/27 00:54:43;;;;;;;57.92;26.30;;;;;;;-7.81;81.46;100400.41;5064902;28;20110;-59
2021/12/27 00:57:10;;;;;;;66.47;29.10;;;;;;;-7.87;81.38;100393.53;5068057;28;20143;-60
2021/12/27 00:59:37;;;;;;;64.07;27.20;;;;;;;-7.80;80.73;100392.75;5060739;28;20054;-59
2021/12/27 01:02:04;;;;;;;65.20;26.88;;;;;;;-7.82;81.03;100386.78;5068003;28;20452;-59
2021/12/27 01:04:32;;;;;;;67.07;26.58;;;;;;;-7.67;80.24;100396.31;5069132;28;20059;-60
2021/12/27 01:06:59;;;;;;;54.90;26.38;;;;;;;-7.70;80.22;100401.38;5067839;28;20044;-60
2021/12/27 01:09:43;;;;;;;65.03;26.55;;;;;;;-7.63;79.76;100397.19;5061332;28;20485;-59
2021/12/27 01:12:33;;;;;;;65.40;28.42;;;;;;;-7.71;79.20;100386.88;5067528;28;20084;-58
2021/12/27 01:17:38;;;;;;;70.78;28.52;;;;;;;-7.79;80.38;100383.38;5067497;28;20142;-61
2021/12/27 01:20:11;;;;;;;70.00;28.90;;;;;;;-7.74;80.39;100381.75;5070925;28;20136;-59
2021/12/27 01:22:39;;;;;;;71.72;28.70;;;;;;;-7.74;80.83;100389.44;5071946;28;20052;-59
2021/12/27 01:25:07;;;;;;;62.45;27.58;;;;;;;-7.79;80.42;100386.81;5070455;28;20311;-61
2021/12/27 01:27:34;;;;;;;73.80;29.13;;;;;;;-7.79;80.73;100378.25;5065995;28;20296;-59
2021/12/27 01:30:04;;;;;;;70.72;30.02;;;;;;;-7.79;80.22;100371.50;5069963;28;20139;-60
2021/12/27 01:32:36;;;;;;;71.30;30.40;;;;;;;-7.74;80.73;100377.50;5071167;28;20139;-58
2021/12/27 01:35:04;;;;;;;73.32;29.77;;;;;;;-7.66;79.52;100370.75;5064017;28;20547;-58
2021/12/27 01:37:31;;;;;;;74.90;31.02;;;;;;;-7.61;79.88;100372.50;5076021;28;20155;-55
2021/12/27 01:43:10;;;;;;;69.97;28.27;;;;;;;-7.60;79.39;100362.31;5049782;28;20060;-62
2021/12/27 01:45:41;;;;;;;68.88;29.08;;;;;;;-7.54;79.73;100357.25;5050369;28;20420;-63
2021/12/27 01:48:09;;;;;;;69.65;29.15;;;;;;;-7.50;78.47;100353.88;5032381;28;20057;-63
2021/12/27 01:50:41;;;;;;;69.28;28.15;;;;;;;-7.53;79.23;100355.56;5033641;28;20137;-64
2021/12/27 01:53:09;;;;;;;71.53;30.25;;;;;;;-7.51;78.33;100353.88;5011360;28;20481;-65
2021/12/27 01:55:37;;;;;;;69.00;29.85;;;;;;;-7.56;79.04;100348.72;5030827;28;20517;-64
2021/12/27 01:58:05;;;;;;;71.18;28.65;;;;;;;-7.55;79.38;100341.91;5030213;28;20429;-64
2021/12/27 02:00:34;;;;;;;72.00;29.75;;;;;;;-7.51;79.04;100348.78;5025685;28;20053;-64
2021/12/27 02:03:03;;;;;;;72.78;29.20;;;;;;;-7.40;79.28;100345.44;5029930;28;20057;-65
2021/12/27 02:05:31;;;;;;;75.97;30.52;;;;;;;-7.46;78.67;100342.00;5028671;28;20045;-64
2021/12/27 02:07:58;;;;;;;71.72;29.63;;;;;;;-7.53;78.66;100342.78;5031110;28;20136;-64
2021/12/27 02:10:25;;;;;;;76.53;31.27;;;;;;;-7.55;78.69;100344.47;5021487;28;20140;-64
2021/12/27 02:12:53;;;;;;;76.50;32.33;;;;;;;-7.53;79.39;100340.22;5013879;28;20059;-63
2021/12/27 02:15:20;;;;;;;86.40;36.15;;;;;;;-7.53;79.00;100345.31;5010057;28;20510;-63
2021/12/27 02:17:47;;;;;;;80.57;35.45;;;;;;;-7.48;78.29;100333.44;5024581;28;20477;-63
2021/12/27 02:20:20;;;;;;;86.28;37.25;;;;;;;-7.44;77.88;100336.03;5031974;28;20251;-63
2021/12/27 02:22:47;;;;;;;79.05;34.22;;;;;;;-7.36;77.94;100327.59;5012202;28;20171;-63
2021/12/27 02:25:15;;;;;;;80.35;35.28;;;;;;;-7.39;78.74;100313.06;5010835;28;20041;-62
2021/12/27 02:27:45;;;;;;;85.13;36.35;;;;;;;-7.39;78.58;100325.84;5028604;28;20473;-61
2021/12/27 02:30:14;;;;;;;87.28;35.58;;;;;;;-7.40;78.55;100308.81;5031532;28;20060;-64
2021/12/27 02:32:53;;;;;;;87.32;35.72;;;;;;;-7.36;78.44;100300.31;5029848;28;20053;-63
2021/12/27 02:35:23;;;;;;;80.95;34.15;;;;;;;-7.28;77.98;100300.41;5023023;28;20060;-62
2021/12/27 02:37:50;;;;;;;73.68;31.52;;;;;;;-7.24;77.94;100304.69;5026924;28;20163;-63
2021/12/27 02:40:18;;;;;;;75.20;32.33;;;;;;;-7.20;78.12;100306.44;5027273;28;20150;-63
2021/12/27 02:43:06;;;;;;;75.18;31.77;;;;;;;-7.18;77.24;100304.72;5030678;28;20605;-63
2021/12/27 02:45:37;;;;;;;74.43;31.35;;;;;;;-7.13;77.42;100298.78;5033247;28;20103;-64
2021/12/27 02:48:05;;;;;;;80.60;30.67;;;;;;;-7.09;76.49;100298.81;5044458;28;20153;-62
2021/12/27 02:50:32;;;;;;;74.22;30.88;;;;;;;-6.99;77.18;100298.03;5016051;28;20113;-60
2021/12/27 02:52:59;;;;;;;86.28;32.08;;;;;;;-6.86;76.60;100302.41;5031480;28;20053;-64
2021/12/27 02:55:27;;;;;;;72.07;31.00;;;;;;;-6.91;76.80;100299.81;5029843;28;20061;-64
2021/12/27 02:57:54;;;;;;;73.00;28.45;;;;;;;-6.82;75.94;100295.59;5025335;28;20088;-65
2021/12/27 03:00:48;;;;;;;68.72;29.83;;;;;;;-6.82;76.08;100278.53;5027291;28;20132;-64
2021/12/27 03:03:15;;;;;;;80.88;31.83;;;;;;;-6.76;76.00;100286.25;5025474;28;20081;-64
2021/12/27 03:05:43;;;;;;;78.30;30.35;;;;;;;-6.70;75.78;100281.19;5026057;28;20095;-65
2021/12/27 03:08:14;;;;;;;69.10;29.00;;;;;;;-6.69;75.12;100288.00;5024049;28;20059;-64
2021/12/27 03:10:44;;;;;;;69.95;29.65;;;;;;;-6.65;74.95;100279.50;5021858;28;20052;-64
2021/12/27 03:13:16;;;;;;;70.35;28.70;;;;;;;-6.62;75.20;100255.59;5028684;28;20050;-63
2021/12/27 03:15:43;;;;;;;72.45;30.52;;;;;;;-6.64;74.92;100260.72;5022901;28;20153;-64
2021/12/27 03:18:11;;;;;;;75.18;29.27;;;;;;;-6.68;75.34;100266.66;5029228;28;20049;-65
2021/12/27 03:20:39;;;;;;;66.90;29.73;;;;;;;-6.70;75.29;100267.53;5033463;28;20058;-64
2021/12/27 03:23:06;;;;;;;73.07;28.70;;;;;;;-6.73;75.08;100258.09;5025272;28;20505;-64
2021/12/27 03:25:34;;;;;;;74.00;30.42;;;;;;;-6.70;75.37;100260.69;5033510;28;20045;-65
2021/12/27 03:28:02;;;;;;;72.25;30.48;;;;;;;-6.69;75.83;100251.31;5029863;28;20119;-64
2021/12/27 03:30:29;;;;;;;65.65;28.63;;;;;;;-6.60;74.89;100259.03;5011428;28;20049;-64
2021/12/27 03:32:57;;;;;;;69.00;30.50;;;;;;;-6.67;74.79;100262.41;5029693;28;20058;-64
2021/12/27 03:35:36;;;;;;;69.65;29.48;;;;;;;-6.61;74.28;100261.59;5030523;28;20050;-64
2021/12/27 03:38:07;;;;;;;71.68;30.00;;;;;;;-6.54;74.50;100263.31;5033465;28;20302;-63
2021/12/27 03:40:35;;;;;;;73.60;29.52;;;;;;;-6.54;74.45;100247.97;5028486;28;20610;-64
2021/12/27 03:43:02;;;;;;;68.95;27.85;;;;;;;-6.63;74.22;100247.06;5034003;28;20512;-64
2021/12/27 03:45:34;;;;;;;68.68;28.48;;;;;;;-6.62;74.61;100245.34;5029876;28;20141;-64
2021/12/27 03:48:03;;;;;;;79.97;30.40;;;;;;;-6.53;74.56;100239.41;5026546;28;20057;-64
2021/12/27 03:50:30;;;;;;;68.95;28.17;;;;;;;-6.45;74.02;100245.44;5028552;28;20493;-63
2021/12/27 03:52:58;;;;;;;72.18;29.25;;;;;;;-6.49;74.07;100236.88;5018005;28;20152;-63
2021/12/27 03:55:26;;;;;;;76.45;29.67;;;;;;;-6.46;73.97;100233.47;5026180;28;20403;-63
2021/12/27 03:58:06;;;;;;;71.97;29.17;;;;;;;-6.43;74.75;100228.38;5012095;28;20063;-64
2021/12/27 04:00:48;;;;;;;77.20;29.95;;;;;;;-6.41;74.00;100224.09;5027948;28;20412;-64
2021/12/27 04:03:16;;;;;;;75.90;29.90;;;;;;;-6.42;73.83;100225.81;5012133;28;20136;-64
2021/12/27 04:05:44;;;;;;;73.40;28.77;;;;;;;-6.41;73.71;100230.09;5028470;28;20276;-64
2021/12/27 04:08:11;;;;;;;69.53;28.63;;;;;;;-6.31;74.07;100223.28;5028821;28;20055;-64
2021/12/27 04:10:41;;;;;;;74.60;29.63;;;;;;;-6.34;72.75;100210.50;5027361;28;20107;-64
2021/12/27 04:13:10;;;;;;;70.93;29.42;;;;;;;-6.37;72.99;100213.03;5029354;28;20048;-64
2021/12/27 04:15:39;;;;;;;77.60;30.90;;;;;;;-6.44;73.45;100212.16;5032958;28;20077;-64
2021/12/27 04:18:09;;;;;;;71.93;28.52;;;;;;;-6.42;74.00;100220.69;5028323;28;20060;-64
2021/12/27 04:20:36;;;;;;;78.78;28.75;;;;;;;-6.34;73.85;100227.56;5028592;28;20059;-64
2021/12/27 04:23:04;;;;;;;72.45;30.50;;;;;;;-6.38;73.57;100224.13;5025751;28;20072;-64
2021/12/27 04:25:31;;;;;;;70.85;28.13;;;;;;;-6.34;73.79;100219.88;5030298;28;20594;-64
2021/12/27 04:27:58;;;;;;;70.53;28.70;;;;;;;-6.29;73.67;100213.91;5028035;28;20045;-64
2021/12/27 04:30:26;;;;;;;74.18;29.42;;;;;;;-6.28;73.63;100218.19;5030486;28;20510;-64
2021/12/27 04:32:53;;;;;;;68.68;29.60;;;;;;;-6.28;73.50;100210.50;5034372;28;20068;-64
2021/12/27 04:35:21;;;;;;;75.28;30.08;;;;;;;-6.23;73.64;100205.38;5011030;28;20524;-64
2021/12/27 04:37:49;;;;;;;74.35;29.92;;;;;;;-6.30;73.54;100214.78;5028239;28;20051;-64
2021/12/27 04:40:17;;;;;;;76.65;29.73;;;;;;;-6.20;72.90;100220.75;5029301;28;20537;-64
2021/12/27 04:42:49;;;;;;;72.65;29.65;;;;;;;-6.21;73.01;100221.63;5028520;28;20096;-65
2021/12/27 04:45:17;;;;;;;66.38;29.00;;;;;;;-6.19;73.08;100210.50;5027683;28;20052;-64
2021/12/27 04:47:45;;;;;;;74.53;30.00;;;;;;;-6.14;73.17;100221.63;5024872;28;20049;-65
2021/12/27 04:50:12;;;;;;;70.28;28.83;;;;;;;-6.10;73.04;100225.06;5025289;28;20503;-63
2021/12/27 04:52:39;;;;;;;73.50;29.60;;;;;;;-6.03;73.15;100223.34;5032078;28;20045;-64
2021/12/27 04:55:07;;;;;;;73.28;28.90;;;;;;;-5.99;72.48;100209.69;5010938;28;20056;-64
2021/12/27 04:57:34;;;;;;;69.93;28.05;;;;;;;-6.00;72.84;100208.84;5029063;28;20329;-64
2021/12/27 05:00:02;;;;;;;66.28;27.83;;;;;;;-6.03;72.18;100202.84;5030139;28;20444;-64
2021/12/27 05:02:29;;;;;;;66.55;28.60;;;;;;;-5.97;72.19;100192.63;5034128;28;20132;-64
2021/12/27 05:04:56;;;;;;;71.45;29.02;;;;;;;-5.95;72.04;100186.63;5030343;28;20081;-64
2021/12/27 05:07:23;;;;;;;60.33;28.23;;;;;;;-5.90;71.71;100189.16;5032110;28;20397;-64
2021/12/27 05:09:50;;;;;;;66.30;28.67;;;;;;;-5.86;71.98;100186.59;5029176;28;20065;-64
2021/12/27 05:12:18;;;;;;;82.32;28.58;;;;;;;-5.88;71.67;100193.44;5025685;28;20064;-63
2021/12/27 05:14:45;;;;;;;78.38;29.80;;;;;;;-5.81;72.24;100191.72;5036040;28;20041;-63
2021/12/27 05:17:12;;;;;;;73.80;28.88;;;;;;;-5.82;71.68;100189.19;5032491;28;20063;-65
2021/12/27 05:19:41;;;;;;;71.70;29.13;;;;;;;-5.77;71.48;100185.75;5032232;28;20603;-64
2021/12/27 05:22:08;;;;;;;69.90;26.52;;;;;;;-5.79;71.26;100192.59;5031557;28;20544;-64
2021/12/27 05:24:35;;;;;;;72.10;29.35;;;;;;;-5.76;71.14;100187.50;5033140;28;20065;-64
2021/12/27 05:27:03;;;;;;;65.78;28.33;;;;;;;-5.68;72.21;100185.75;5008641;28;20378;-64
2021/12/27 05:29:30;;;;;;;69.72;29.13;;;;;;;-5.66;71.25;100181.50;5026452;28;20103;-64
2021/12/27 05:32:01;;;;;;;79.18;30.73;;;;;;;-5.59;70.89;100184.91;5028209;28;20250;-64
2021/12/27 05:34:35;;;;;;;71.65;28.55;;;;;;;-5.62;71.28;100179.78;5027016;28;20060;-64
2021/12/27 05:37:03;;;;;;;62.97;27.73;;;;;;;-5.62;71.02;100175.50;5030853;28;20128;-64
2021/12/27 05:39:31;;;;;;;69.70;29.00;;;;;;;-5.63;71.05;100170.38;5031614;28;20052;-64
2021/12/27 05:41:59;;;;;;;69.28;27.20;;;;;;;-5.61;71.02;100168.66;5031675;28;20553;-64
2021/12/27 05:44:26;;;;;;;67.43;29.67;;;;;;;-5.57;71.53;100160.13;5031337;28;20551;-64
2021/12/27 05:46:54;;;;;;;63.80;26.80;;;;;;;-5.58;71.35;100155.84;5024524;28;20084;-64
2021/12/27 05:49:22;;;;;;;69.07;28.92;;;;;;;-5.61;71.75;100151.56;5030787;28;20056;-64
2021/12/27 05:51:50;;;;;;;71.25;29.75;;;;;;;-5.56;71.62;100154.13;5030145;28;20071;-64
2021/12/27 05:54:19;;;;;;;65.40;27.73;;;;;;;-5.51;71.49;100159.25;5027605;28;20413;-64
2021/12/27 05:56:47;;;;;;;71.47;27.70;;;;;;;-5.46;71.64;100154.97;5031397;28;20416;-64
2021/12/27 05:59:17;;;;;;;75.68;30.45;;;;;;;-5.48;72.14;100160.13;5011400;28;20057;-63
2021/12/27 06:01:45;;;;;;;76.40;29.52;;;;;;;-5.44;71.98;100156.69;5013194;28;20045;-64
2021/12/27 06:04:12;;;;;;;70.07;28.42;;;;;;;-5.39;71.50;100166.94;5028581;28;20502;-63
2021/12/27 06:06:40;;;;;;;75.20;29.40;;;;;;;-5.30;71.70;100168.63;5013842;28;20052;-64
2021/12/27 06:09:07;;;;;;;66.53;28.38;;;;;;;-5.26;71.06;100167.78;5028412;28;20061;-64
2021/12/27 06:11:35;;;;;;;65.22;26.58;;;;;;;-5.25;70.88;100162.63;5026062;28;20315;-64
2021/12/27 06:14:02;;;;;;;74.68;29.77;;;;;;;-5.30;70.54;100164.38;5035678;28;20111;-63
2021/12/27 06:16:29;;;;;;;69.70;29.98;;;;;;;-5.25;71.36;100160.06;5035182;28;20053;-64
2021/12/27 06:18:56;;;;;;;67.53;28.90;;;;;;;-5.22;71.37;100162.63;5026538;28;20141;-64
2021/12/27 06:21:24;;;;;;;66.25;26.92;;;;;;;-5.13;71.23;100152.34;5010773;28;20600;-64
2021/12/27 06:23:51;;;;;;;70.63;28.33;;;;;;;-5.17;70.65;100153.22;5026954;28;20045;-64
2021/12/27 06:26:19;;;;;;;71.43;28.73;;;;;;;-5.11;70.11;100144.63;5032594;28;20391;-64
2021/12/27 06:28:47;;;;;;;70.20;27.80;;;;;;;-5.16;70.40;100147.22;5025885;28;20061;-63
2021/12/27 06:31:14;;;;;;;74.93;30.80;;;;;;;-5.23;70.79;100144.66;5032025;28;20056;-64
2021/12/27 06:33:41;;;;;;;76.57;28.83;;;;;;;-5.21;71.18;100141.25;5011688;28;20128;-62
2021/12/27 06:36:09;;;;;;;73.03;28.05;;;;;;;-5.17;70.91;100137.81;5038232;28;20072;-64
2021/12/27 06:38:36;;;;;;;75.15;30.55;;;;;;;-5.14;71.79;100144.63;5010127;28;20064;-64
2021/12/27 06:41:03;;;;;;;68.85;29.15;;;;;;;-5.06;71.34;100144.63;5031722;28;20050;-64
2021/12/27 06:43:30;;;;;;;72.25;28.83;;;;;;;-5.10;71.31;100142.06;5029181;28;20085;-64
2021/12/27 06:45:58;;;;;;;72.30;30.52;;;;;;;-5.07;71.62;100138.63;5035175;28;20404;-62
2021/12/27 06:48:26;;;;;;;68.15;28.27;;;;;;;-5.10;72.38;100131.78;5028739;28;20061;-62
2021/12/27 06:50:53;;;;;;;67.15;28.02;;;;;;;-5.03;72.20;100142.06;4981340;28;20049;-63
2021/12/27 06:53:28;;;;;;;70.97;30.60;;;;;;;-5.12;73.36;100133.53;5029536;28;20057;-64
2021/12/27 06:55:56;;;;;;;74.55;30.77;;;;;;;-5.06;73.71;100140.34;5028797;28;20107;-63
2021/12/27 06:58:24;;;;;;;74.60;30.27;;;;;;;-4.96;72.53;100138.59;5029320;28;20068;-64
2021/12/27 07:00:51;;;;;;;70.95;29.63;;;;;;;-4.93;73.51;100149.72;5027518;28;20708;-66
2021/12/27 07:03:19;;;;;;;69.75;27.98;;;;;;;-4.80;73.05;100147.09;5029272;28;20421;-64
2021/12/27 07:05:48;;;;;;;76.32;30.75;;;;;;;-4.94;73.07;100142.03;5032907;28;20045;-64
2021/12/27 07:08:18;;;;;;;70.18;28.90;;;;;;;-4.87;73.04;100130.84;5028993;28;20561;-63
2021/12/27 07:10:45;;;;;;;76.22;28.55;;;;;;;-4.82;72.82;100138.53;5028255;28;20468;-64
2021/12/27 07:13:12;;;;;;;72.40;30.05;;;;;;;-4.87;73.05;100138.56;5026544;28;20132;-63
2021/12/27 07:15:41;;;;;;;71.00;29.73;;;;;;;-4.78;73.11;100142.78;5033641;28;20041;-64
2021/12/27 07:18:10;;;;;;;66.40;28.38;;;;;;;-4.74;73.03;100140.22;5010377;28;20376;-63
2021/12/27 07:20:37;;;;;;;69.15;28.67;;;;;;;-4.73;72.98;100139.34;5033374;28;20263;-62
2021/12/27 07:23:06;;;;;;;70.95;28.27;;;;;;;-4.68;73.08;100132.50;5029374;28;20049;-63
2021/12/27 07:25:34;;;;;;;70.65;28.08;;;;;;;-4.66;72.97;100147.88;5032310;28;20136;-62
2021/12/27 07:28:02;;;;;;;71.40;29.45;;;;;;;-4.60;73.58;100143.56;5027793;28;20140;-61
2021/12/27 07:30:29;;;;;;;75.65;30.45;;;;;;;-4.60;73.55;100151.25;5013139;28;20053;-62
2021/12/27 07:32:56;;;;;;;69.50;29.13;;;;;;;-4.52;73.46;100147.81;5030334;28;20136;-61
2021/12/27 07:35:25;;;;;;;67.63;28.10;;;;;;;-4.48;73.35;100152.94;5027569;28;20045;-64
2021/12/27 07:37:53;;;;;;;68.78;28.52;;;;;;;-4.46;73.53;100140.06;5030874;28;20054;-63
2021/12/27 07:40:25;;;;;;;71.70;29.73;;;;;;;-4.43;73.22;100142.63;5046386;22;20114;-60
2021/12/27 07:42:52;;;;;;;72.93;29.55;;;;;;;-4.46;73.53;100140.06;5047163;28;20057;-59
2021/12/27 07:45:19;;;;;;;66.55;28.20;;;;;;;-4.42;74.03;100134.91;5042318;28;20235;-58
2021/12/27 07:47:47;;;;;;;68.38;28.55;;;;;;;-4.47;74.59;100128.09;5050572;28;20095;-59
2021/12/27 07:50:14;;;;;;;71.93;27.77;;;;;;;-4.43;74.49;100130.63;5042449;28;20056;-60
2021/12/27 07:52:41;;;;;;;70.15;28.92;;;;;;;-4.38;74.45;100128.03;5055105;28;20072;-61
2021/12/27 07:55:08;;;;;;;61.85;27.25;;;;;;;-4.44;74.89;100123.78;5045372;28;20389;-55
2021/12/27 07:57:36;;;;;;;64.70;29.02;;;;;;;-4.37;74.73;100127.16;5048728;28;20501;-59
2021/12/27 08:00:05;;;;;;;68.05;28.33;;;;;;;-4.38;75.36;100134.03;5045817;28;20059;-60
2021/12/27 08:02:32;;;;;;;61.25;28.10;;;;;;;-4.39;75.63;100137.47;5049316;28;20053;-58
2021/12/27 08:04:59;;;;;;;64.75;28.27;;;;;;;-4.31;75.75;100132.28;5042748;28;20568;-58
2021/12/27 08:07:27;;;;;;;65.32;29.13;;;;;;;-4.17;75.36;100129.63;5049256;28;20071;-60
2021/12/27 08:09:54;;;;;;;70.30;27.45;;;;;;;-4.20;75.59;100130.47;5048519;28;20136;-60
2021/12/27 08:12:21;;;;;;;67.47;28.52;;;;;;;-4.23;75.39;100130.53;5049221;28;20059;-58
2021/12/27 08:14:48;;;;;;;67.47;29.05;;;;;;;-4.21;76.08;100130.50;5042589;28;20044;-59
2021/12/27 08:17:15;;;;;;;66.55;27.70;;;;;;;-4.21;75.78;100127.94;5046663;28;20053;-59
2021/12/27 08:19:42;;;;;;;67.28;29.10;;;;;;;-4.13;76.06;100121.88;5047236;28;20432;-59
2021/12/27 08:22:09;;;;;;;67.25;28.10;;;;;;;-4.05;76.20;100116.69;5048762;28;20053;-61
2021/12/27 08:24:37;;;;;;;71.20;31.15;;;;;;;-4.00;76.02;100120.06;5043253;28;20048;-60
2021/12/27 08:27:04;;;;;;;60.28;27.38;;;;;;;-3.98;75.57;100120.03;5050521;28;20136;-59
2021/12/27 08:29:31;;;;;;;66.70;28.77;;;;;;;-3.94;75.67;100114.88;5052105;28;20136;-60
2021/12/27 08:31:58;;;;;;;66.22;28.10;;;;;;;-3.91;75.38;100114.00;5055619;28;20091;-56
2021/12/27 08:34:25;;;;;;;69.82;28.08;;;;;;;-3.91;75.39;100112.28;5051604;28;20049;-61
2021/12/27 08:36:52;;;;;;;64.80;28.52;;;;;;;-3.85;75.55;100104.50;5054439;28;20517;-60
2021/12/27 08:39:20;;;;;;;70.32;29.58;;;;;;;-3.81;75.93;100110.47;5049042;28;20123;-61
2021/12/27 08:41:47;;;;;;;66.65;28.65;;;;;;;-3.80;75.11;100103.63;5051993;28;20385;-62
2021/12/27 08:44:14;;;;;;;68.90;29.60;;;;;;;-3.73;75.62;100107.84;5051773;28;20049;-62
2021/12/27 08:46:42;;;;;;;61.13;27.73;;;;;;;-3.67;75.19;100103.47;5055422;28;20055;-56
2021/12/27 08:49:10;;;;;;;64.43;27.13;;;;;;;-3.61;74.77;100098.28;5044968;28;20052;-63
2021/12/27 08:51:37;;;;;;;75.85;30.40;;;;;;;-3.58;75.48;100092.25;5053318;28;20139;-62
2021/12/27 08:54:05;;;;;;;72.72;29.10;;;;;;;-3.55;74.77;100096.53;5050192;28;20095;-59
2021/12/27 08:56:32;;;;;;;63.60;27.58;;;;;;;-3.51;74.75;100091.34;5052479;28;20067;-58
2021/12/27 08:58:59;;;;;;;61.70;28.58;;;;;;;-3.46;74.56;100093.88;5047272;28;20057;-58
2021/12/27 09:01:27;;;;;;;60.15;27.17;;;;;;;-3.46;74.59;100099.00;5052329;28;20053;-59
2021/12/27 09:03:54;;;;;;;67.28;26.50;;;;;;;-3.36;74.26;100088.59;5058278;28;20057;-62
2021/12/27 09:06:22;;;;;;;67.47;29.02;;;;;;;-3.26;73.62;100094.50;5054100;28;20111;-60
2021/12/27 09:08:49;;;;;;;68.13;26.70;;;;;;;-3.14;73.58;100094.34;5054116;28;20063;-60
2021/12/27 09:11:16;;;;;;;61.95;27.65;;;;;;;-3.09;73.48;100105.44;5055513;28;20044;-60
2021/12/27 09:13:43;;;;;;;68.13;26.27;;;;;;;-2.99;73.08;100102.75;5053878;28;20135;-59
2021/12/27 09:16:30;;;;;;;65.95;27.83;;;;;;;-3.14;73.29;100099.50;5059620;28;20523;-57
2021/12/27 09:19:01;;;;;;;67.47;26.92;;;;;;;-3.05;73.09;100095.97;5053136;28;20059;-59
2021/12/27 09:21:28;;;;;;;67.70;29.50;;;;;;;-3.01;73.37;100101.94;5054167;28;20053;-60
2021/12/27 09:23:55;;;;;;;70.10;27.85;;;;;;;-2.94;73.18;100096.69;5053878;28;20107;-58
2021/12/27 09:26:22;;;;;;;69.80;27.42;;;;;;;-2.82;72.69;100098.25;5054572;28;20182;-59
2021/12/27 09:28:49;;;;;;;65.40;28.50;;;;;;;-2.87;72.66;100087.16;5053456;28;20055;-58
2021/12/27 09:31:17;;;;;;;61.63;27.05;;;;;;;-2.88;72.43;100088.91;5049280;28;20049;-59
2021/12/27 09:33:44;;;;;;;64.95;28.15;;;;;;;-2.83;72.92;100088.84;5053481;28;20139;-60
2021/12/27 09:36:14;;;;;;;61.28;25.77;;;;;;;-2.82;73.43;100090.53;5053065;28;20592;-60
2021/12/27 09:38:41;;;;;;;62.60;26.55;;;;;;;-2.70;72.24;100087.81;5047364;28;20050;-61
2021/12/27 09:41:08;;;;;;;59.03;25.98;;;;;;;-2.72;72.56;100084.38;5049617;28;20053;-58
2021/12/27 09:43:35;;;;;;;61.25;26.25;;;;;;;-2.68;72.89;100085.19;5050155;28;20053;-58
2021/12/27 09:46:03;;;;;;;61.72;25.90;;;;;;;-2.64;72.08;100082.56;5032481;28;20445;-62
2021/12/27 09:48:30;;;;;;;63.42;27.02;;;;;;;-2.69;72.31;100078.34;5039071;28;20148;-59
2021/12/27 09:50:57;;;;;;;65.72;26.38;;;;;;;-2.64;72.68;100073.97;5050069;28;20286;-59
2021/12/27 09:53:25;;;;;;;60.17;26.88;;;;;;;-2.61;72.62;100077.38;5051733;28;20531;-60
2021/12/27 09:56:11;;;;;;;58.25;26.02;;;;;;;-2.50;72.13;100066.91;5046790;28;20095;-59
2021/12/27 09:58:38;;;;;;;65.75;26.25;;;;;;;-2.44;71.99;100056.47;5049842;28;20064;-59
2021/12/27 10:01:06;;;;;;;57.58;25.73;;;;;;;-2.57;72.70;100060.13;5048176;28;20045;-59
2021/12/27 10:03:51;;;;;;;55.75;25.33;;;;;;;-2.41;72.25;100059.03;5043918;28;20135;-60
2021/12/27 10:06:20;;;;;;;63.83;26.02;;;;;;;-2.21;71.78;100063.88;5046942;28;20052;-60
2021/12/27 10:08:50;;;;;;;63.28;26.67;;;;;;;-2.26;71.28;100062.25;5050551;28;20056;-60
2021/12/27 10:11:38;;;;;;;61.50;25.50;;;;;;;-2.20;71.62;100065.59;5051896;28;20145;-61
2021/12/27 10:14:07;;;;;;;66.90;26.88;;;;;;;-2.05;71.10;100061.91;5044330;28;20619;-61
2021/12/27 10:16:43;;;;;;;61.17;27.50;;;;;;;-1.97;70.73;100057.47;5034275;28;20219;-60
2021/12/27 10:19:11;;;;;;;62.30;26.27;;;;;;;-1.79;70.16;100057.16;5030377;28;20456;-61
2021/12/27 10:21:43;;;;;;;67.13;26.85;;;;;;;-1.69;69.66;100055.25;5052085;28;20052;-58
2021/12/27 10:24:16;;;;;;;62.10;26.73;;;;;;;-1.54;68.99;100042.06;5043611;28;20045;-59
2021/12/27 10:26:45;;;;;;;63.78;25.80;;;;;;;-1.54;68.88;100047.22;5056839;28;20064;-61
2021/12/27 10:29:25;;;;;;;62.85;27.00;;;;;;;-1.38;68.39;100041.78;5047714;28;20416;-60
2021/12/27 10:32:04;;;;;;;60.95;26.35;;;;;;;-1.28;68.44;100040.72;5044931;28;20060;-60
2021/12/27 10:34:45;;;;;;;63.38;27.08;;;;;;;-1.28;68.11;100032.97;5044673;28;20535;-58
2021/12/27 10:37:17;;;;;;;63.17;27.42;;;;;;;-1.02;67.90;100020.38;5050996;28;20099;-60
2021/12/27 10:39:53;;;;;;;62.17;26.25;;;;;;;-0.93;67.08;100014.16;5046269;28;20057;-60
2021/12/27 10:42:29;;;;;;;;;;;;;;;-0.64;66.56;100012.63;5048769;28;20091;-62
2021/12/27 10:44:59;;;;;;;65.93;26.15;;;;;;;0.02;64.88;100011.06;5046984;28;20107;-59
2021/12/27 10:47:39;;;;;;;54.67;23.20;;;;;;;0.48;62.99;100019.28;5049846;28;20102;-63
2021/12/27 10:50:10;;;;;;;58.35;24.60;;;;;;;0.79;62.00;100015.84;5041063;28;20063;-62
2021/12/27 10:52:58;;;;;;;58.45;25.10;;;;;;;0.73;61.80;100010.84;5051280;28;20049;-63
2021/12/27 10:55:30;;;;;;;57.45;26.45;;;;;;;0.42;61.78;100009.13;5047113;28;20416;-61
2021/12/27 10:58:23;;;;;;;56.65;24.27;;;;;;;0.01;63.26;100002.44;5050183;28;20083;-62
2021/12/27 11:00:55;;;;;;;53.03;23.20;;;;;;;-0.21;64.23;100004.72;5048370;28;20045;-58
2021/12/27 11:03:36;;;;;;;59.80;25.77;;;;;;;-0.21;64.26;99998.72;5049144;28;20135;-61
2021/12/27 11:06:05;;;;;;;57.60;24.63;;;;;;;-0.26;64.24;99985.88;5047180;28;20085;-59
2021/12/27 11:08:34;;;;;;;56.00;24.30;;;;;;;-0.14;63.86;99985.56;5049720;28;20110;-62
2021/12/27 11:11:02;;;;;;;58.47;25.55;;;;;;;-0.09;64.54;99994.06;5050689;28;20045;-62
2021/12/27 11:13:29;;;;;;;57.58;24.58;;;;;;;-0.14;64.33;99987.28;5046176;28;20052;-61
2021/12/27 11:15:56;;;;;;;57.40;24.15;;;;;;;-0.05;64.21;99985.31;5048442;28;20123;-60
2021/12/27 11:18:24;;;;;;;56.97;23.63;;;;;;;0.01;63.94;99981.75;5049092;28;20071;-62
2021/12/27 11:20:54;;;;;;;61.67;26.33;;;;;;;-0.10;64.39;99982.00;5049750;28;20048;-62
2021/12/27 11:23:23;;;;;;;64.07;26.13;;;;;;;-0.26;64.92;99970.38;5048068;28;20148;-61